sensor_id;sensor_type;location;lat;lon;timestamp;pressure;altitude;pressure_sealevel;temperature;humidity
27864;BME280;15980;51.092;13.916;2023-01-08T00:00:21;98223.41;;;5.03;91.26
27864;BME280;15980;51.092;13.916;2023-01-08T00:05:28;98212.72;;;5.07;92.03
27864;BME280;15980;51.092;13.916;2023-01-08T00:10:34;98219.25;;;5.06;91.50
27864;BME280;15980;51.092;13.916;2023-01-08T00:15:39;98206.78;;;5.05;91.55
27864;BME280;15980;51.092;13.916;2023-01-08T00:20:46;98196.84;;;5.00;91.51
27864;BME280;15980;51.092;13.916;2023-01-08T00:25:51;98204.38;;;5.03;91.51
27864;BME280;15980;51.092;13.916;2023-01-08T00:30:56;98204.03;;;4.88;91.65
27864;BME280;15980;51.092;13.916;2023-01-08T00:36:10;98190.59;;;4.91;93.65
27864;BME280;15980;51.092;13.916;2023-01-08T00:41:15;98197.50;;;4.97;92.23
27864;BME280;15980;51.092;13.916;2023-01-08T00:46:20;98189.00;;;4.99;91.97
27864;BME280;15980;51.092;13.916;2023-01-08T00:51:27;98173.19;;;5.01;92.21
27864;BME280;15980;51.092;13.916;2023-01-08T00:56:32;98174.47;;;5.03;91.54
27864;BME280;15980;51.092;13.916;2023-01-08T01:01:37;98182.97;;;5.11;91.44
27864;BME280;15980;51.092;13.916;2023-01-08T01:06:45;98163.13;;;5.19;90.95
27864;BME280;15980;51.092;13.916;2023-01-08T01:11:50;98157.69;;;5.19;90.70
27864;BME280;15980;51.092;13.916;2023-01-08T01:16:55;98157.25;;;5.25;90.59
27864;BME280;15980;51.092;13.916;2023-01-08T01:22:02;98145.22;;;5.18;89.25
27864;BME280;15980;51.092;13.916;2023-01-08T01:27:07;98141.38;;;5.19;90.67
27864;BME280;15980;51.092;13.916;2023-01-08T01:32:12;98134.81;;;5.20;90.79
27864;BME280;15980;51.092;13.916;2023-01-08T01:37:19;98144.59;;;5.21;90.22
27864;BME280;15980;51.092;13.916;2023-01-08T01:42:24;98142.69;;;5.21;90.38
27864;BME280;15980;51.092;13.916;2023-01-08T01:47:43;98148.41;;;5.20;90.27
27864;BME280;15980;51.092;13.916;2023-01-08T01:52:57;98150.34;;;5.19;90.41
27864;BME280;15980;51.092;13.916;2023-01-08T01:58:09;98138.97;;;5.09;90.76
27864;BME280;15980;51.092;13.916;2023-01-08T02:03:15;98134.00;;;5.11;90.67
27864;BME280;15980;51.092;13.916;2023-01-08T02:08:27;98133.06;;;5.07;90.15
27864;BME280;15980;51.092;13.916;2023-01-08T02:13:39;98126.97;;;5.10;90.66
27864;BME280;15980;51.092;13.916;2023-01-08T02:18:46;98111.47;;;5.10;90.50
27864;BME280;15980;51.092;13.916;2023-01-08T02:23:59;98096.91;;;5.06;90.73
27864;BME280;15980;51.092;13.916;2023-01-08T02:29:10;98087.94;;;5.05;91.61
27864;BME280;15980;51.092;13.916;2023-01-08T02:34:17;98088.75;;;5.06;90.97
27864;BME280;15980;51.092;13.916;2023-01-08T02:39:45;98097.69;;;5.07;92.20
27864;BME280;15980;51.092;13.916;2023-01-08T02:45:11;98080.09;;;5.04;91.78
27864;BME280;15980;51.092;13.916;2023-01-08T02:50:23;98090.03;;;5.00;91.69
27864;BME280;15980;51.092;13.916;2023-01-08T02:55:29;98093.38;;;4.97;92.29
27864;BME280;15980;51.092;13.916;2023-01-08T03:00:41;98095.28;;;4.88;92.57
27864;BME280;15980;51.092;13.916;2023-01-08T03:05:51;98090.50;;;4.85;93.37
27864;BME280;15980;51.092;13.916;2023-01-08T03:11:01;98097.84;;;4.84;92.92
27864;BME280;15980;51.092;13.916;2023-01-08T03:16:15;98085.38;;;4.83;93.76
27864;BME280;15980;51.092;13.916;2023-01-08T03:21:21;98074.19;;;4.85;94.39
27864;BME280;15980;51.092;13.916;2023-01-08T03:26:26;98083.47;;;4.84;94.02
27864;BME280;15980;51.092;13.916;2023-01-08T03:31:35;98074.81;;;4.82;93.92
27864;BME280;15980;51.092;13.916;2023-01-08T03:36:41;98057.72;;;4.81;94.60
27864;BME280;15980;51.092;13.916;2023-01-08T03:41:48;98062.19;;;4.77;94.11
27864;BME280;15980;51.092;13.916;2023-01-08T03:46:57;98063.59;;;4.74;94.60
27864;BME280;15980;51.092;13.916;2023-01-08T03:52:02;98057.84;;;4.67;94.63
27864;BME280;15980;51.092;13.916;2023-01-08T03:57:07;98039.59;;;4.68;95.64
27864;BME280;15980;51.092;13.916;2023-01-08T04:02:14;98029.38;;;4.65;94.74
27864;BME280;15980;51.092;13.916;2023-01-08T04:07:20;98026.34;;;4.66;95.16
27864;BME280;15980;51.092;13.916;2023-01-08T04:12:25;98019.94;;;4.71;96.38
27864;BME280;15980;51.092;13.916;2023-01-08T04:17:33;98016.75;;;4.69;95.21
27864;BME280;15980;51.092;13.916;2023-01-08T04:22:38;97995.38;;;4.85;95.55
27864;BME280;15980;51.092;13.916;2023-01-08T04:27:43;97983.38;;;4.94;95.65
27864;BME280;15980;51.092;13.916;2023-01-08T04:32:50;97991.50;;;5.20;94.55
27864;BME280;15980;51.092;13.916;2023-01-08T04:37:55;98002.38;;;5.29;94.08
27864;BME280;15980;51.092;13.916;2023-01-08T04:43:00;97993.69;;;5.44;93.05
27864;BME280;15980;51.092;13.916;2023-01-08T04:48:07;98015.13;;;5.54;92.50
27864;BME280;15980;51.092;13.916;2023-01-08T04:53:12;98026.47;;;5.56;92.62
27864;BME280;15980;51.092;13.916;2023-01-08T04:58:17;98006.94;;;5.54;91.75
27864;BME280;15980;51.092;13.916;2023-01-08T05:03:24;97997.25;;;5.36;92.90
27864;BME280;15980;51.092;13.916;2023-01-08T05:08:29;98000.63;;;5.24;93.83
27864;BME280;15980;51.092;13.916;2023-01-08T05:13:34;97999.03;;;5.23;93.89
27864;BME280;15980;51.092;13.916;2023-01-08T05:18:42;98002.69;;;5.27;94.33
27864;BME280;15980;51.092;13.916;2023-01-08T05:23:47;97993.41;;;5.37;94.00
27864;BME280;15980;51.092;13.916;2023-01-08T05:28:52;97974.19;;;5.42;93.27
27864;BME280;15980;51.092;13.916;2023-01-08T05:33:59;97963.16;;;5.39;94.00
27864;BME280;15980;51.092;13.916;2023-01-08T05:39:04;97975.97;;;5.29;93.84
27864;BME280;15980;51.092;13.916;2023-01-08T05:44:09;97980.13;;;5.18;94.08
27864;BME280;15980;51.092;13.916;2023-01-08T05:49:16;97963.50;;;5.20;93.90
27864;BME280;15980;51.092;13.916;2023-01-08T05:54:22;97969.75;;;5.12;94.70
27864;BME280;15980;51.092;13.916;2023-01-08T05:59:27;97978.69;;;5.12;94.63
27864;BME280;15980;51.092;13.916;2023-01-08T06:04:34;97968.94;;;5.11;94.17
27864;BME280;15980;51.092;13.916;2023-01-08T06:09:39;97962.75;;;4.93;94.79
27864;BME280;15980;51.092;13.916;2023-01-08T06:14:44;97956.00;;;4.99;95.26
27864;BME280;15980;51.092;13.916;2023-01-08T06:19:51;97956.63;;;5.05;95.17
27864;BME280;15980;51.092;13.916;2023-01-08T06:24:56;97950.09;;;4.97;94.76
27864;BME280;15980;51.092;13.916;2023-01-08T06:30:01;97945.28;;;5.03;94.61
27864;BME280;15980;51.092;13.916;2023-01-08T06:35:09;97943.38;;;5.03;95.52
27864;BME280;15980;51.092;13.916;2023-01-08T06:40:14;97955.84;;;5.04;94.88
27864;BME280;15980;51.092;13.916;2023-01-08T06:45:19;97960.97;;;4.97;93.45
27864;BME280;15980;51.092;13.916;2023-01-08T06:50:26;97962.72;;;5.02;94.78
27864;BME280;15980;51.092;13.916;2023-01-08T06:55:31;97970.72;;;5.07;94.46
27864;BME280;15980;51.092;13.916;2023-01-08T07:00:36;97966.72;;;5.22;94.99
27864;BME280;15980;51.092;13.916;2023-01-08T07:05:44;97977.28;;;5.23;93.41
27864;BME280;15980;51.092;13.916;2023-01-08T07:10:51;97983.59;;;5.45;93.62
27864;BME280;15980;51.092;13.916;2023-01-08T07:15:56;97982.97;;;5.48;92.94
27864;BME280;15980;51.092;13.916;2023-01-08T07:21:04;97985.19;;;5.54;92.87
27864;BME280;15980;51.092;13.916;2023-01-08T07:26:09;97992.69;;;5.57;92.57
27864;BME280;15980;51.092;13.916;2023-01-08T07:31:14;97977.81;;;5.55;92.34
27864;BME280;15980;51.092;13.916;2023-01-08T07:36:22;97983.59;;;5.53;93.20
27864;BME280;15980;51.092;13.916;2023-01-08T07:41:27;97975.06;;;5.72;91.38
27864;BME280;15980;51.092;13.916;2023-01-08T07:46:32;97965.28;;;5.71;91.74
27864;BME280;15980;51.092;13.916;2023-01-08T07:51:39;97972.47;;;5.76;90.74
27864;BME280;15980;51.092;13.916;2023-01-08T07:56:44;97963.63;;;5.87;91.34
27864;BME280;15980;51.092;13.916;2023-01-08T08:01:49;97967.88;;;6.06;90.10
27864;BME280;15980;51.092;13.916;2023-01-08T08:06:56;97959.94;;;5.92;91.57
27864;BME280;15980;51.092;13.916;2023-01-08T08:12:01;97968.59;;;5.94;90.88
27864;BME280;15980;51.092;13.916;2023-01-08T08:17:06;97960.22;;;5.99;91.53
27864;BME280;15980;51.092;13.916;2023-01-08T08:22:14;97969.22;;;5.91;89.04
27864;BME280;15980;51.092;13.916;2023-01-08T08:27:19;97970.09;;;6.12;90.84
27864;BME280;15980;51.092;13.916;2023-01-08T08:32:26;97955.91;;;6.27;89.43
27864;BME280;15980;51.092;13.916;2023-01-08T08:37:34;97952.31;;;6.15;89.33
27864;BME280;15980;51.092;13.916;2023-01-08T08:42:38;97953.25;;;6.19;88.16
27864;BME280;15980;51.092;13.916;2023-01-08T08:47:44;97950.56;;;6.10;87.70
27864;BME280;15980;51.092;13.916;2023-01-08T08:52:51;97943.53;;;6.09;88.46
27864;BME280;15980;51.092;13.916;2023-01-08T08:58:02;97927.47;;;6.16;88.12
27864;BME280;15980;51.092;13.916;2023-01-08T09:03:10;97922.44;;;6.27;89.45
27864;BME280;15980;51.092;13.916;2023-01-08T09:08:18;97931.06;;;6.50;88.42
27864;BME280;15980;51.092;13.916;2023-01-08T09:13:23;97927.59;;;6.41;86.72
27864;BME280;15980;51.092;13.916;2023-01-08T09:18:28;97917.72;;;6.57;87.39
27864;BME280;15980;51.092;13.916;2023-01-08T09:23:35;97927.81;;;6.77;86.51
27864;BME280;15980;51.092;13.916;2023-01-08T09:28:40;97915.22;;;6.85;85.92
27864;BME280;15980;51.092;13.916;2023-01-08T09:33:46;97904.63;;;6.71;86.36
27864;BME280;15980;51.092;13.916;2023-01-08T09:38:54;97889.53;;;6.74;85.58
27864;BME280;15980;51.092;13.916;2023-01-08T09:44:01;97901.81;;;6.80;86.43
27864;BME280;15980;51.092;13.916;2023-01-08T09:49:12;97885.88;;;6.70;86.23
27864;BME280;15980;51.092;13.916;2023-01-08T09:54:20;97883.47;;;6.68;85.25
27864;BME280;15980;51.092;13.916;2023-01-08T09:59:29;97887.88;;;6.60;85.02
27864;BME280;15980;51.092;13.916;2023-01-08T10:04:34;97894.72;;;6.67;87.10
27864;BME280;15980;51.092;13.916;2023-01-08T10:09:41;97885.78;;;6.78;85.48
27864;BME280;15980;51.092;13.916;2023-01-08T10:14:46;97878.88;;;6.81;84.83
27864;BME280;15980;51.092;13.916;2023-01-08T10:19:53;97895.88;;;6.99;84.23
27864;BME280;15980;51.092;13.916;2023-01-08T10:25:07;97900.22;;;6.79;83.71
27864;BME280;15980;51.092;13.916;2023-01-08T10:30:15;97904.66;;;7.04;84.51
27864;BME280;15980;51.092;13.916;2023-01-08T10:35:23;97905.25;;;7.22;82.81
27864;BME280;15980;51.092;13.916;2023-01-08T10:40:35;97903.25;;;7.43;82.49
27864;BME280;15980;51.092;13.916;2023-01-08T10:45:43;97892.00;;;7.57;81.33
27864;BME280;15980;51.092;13.916;2023-01-08T10:51:10;97880.53;;;7.64;81.93
27864;BME280;15980;51.092;13.916;2023-01-08T10:56:21;97868.00;;;7.38;80.54
27864;BME280;15980;51.092;13.916;2023-01-08T11:01:28;97866.19;;;7.54;80.94
27864;BME280;15980;51.092;13.916;2023-01-08T11:06:39;97861.31;;;7.48;80.06
27864;BME280;15980;51.092;13.916;2023-01-08T11:11:49;97861.66;;;7.46;80.12
27864;BME280;15980;51.092;13.916;2023-01-08T11:16:55;97840.72;;;7.38;80.69
27864;BME280;15980;51.092;13.916;2023-01-08T11:22:05;97839.59;;;7.51;79.90
27864;BME280;15980;51.092;13.916;2023-01-08T11:27:25;97841.84;;;7.37;81.28
27864;BME280;15980;51.092;13.916;2023-01-08T11:32:40;97839.91;;;7.50;79.32
27864;BME280;15980;51.092;13.916;2023-01-08T11:37:51;97837.88;;;7.47;81.72
27864;BME280;15980;51.092;13.916;2023-01-08T11:43:20;97824.44;;;7.54;80.16
27864;BME280;15980;51.092;13.916;2023-01-08T11:48:36;97821.81;;;7.70;79.78
27864;BME280;15980;51.092;13.916;2023-01-08T11:53:48;97801.56;;;7.34;80.07
27864;BME280;15980;51.092;13.916;2023-01-08T11:59:07;97791.59;;;7.38;81.59
27864;BME280;15980;51.092;13.916;2023-01-08T12:04:27;97774.75;;;7.12;80.84
27864;BME280;15980;51.092;13.916;2023-01-08T12:09:41;97776.00;;;7.14;82.60
27864;BME280;15980;51.092;13.916;2023-01-08T12:14:59;97768.84;;;7.22;81.96
27864;BME280;15980;51.092;13.916;2023-01-08T12:20:19;97772.94;;;7.40;81.83
27864;BME280;15980;51.092;13.916;2023-01-08T12:25:38;97771.91;;;7.57;80.23
27864;BME280;15980;51.092;13.916;2023-01-08T12:30:58;97781.56;;;7.67;79.63
27864;BME280;15980;51.092;13.916;2023-01-08T12:36:09;97775.00;;;7.43;79.30
27864;BME280;15980;51.092;13.916;2023-01-08T12:41:18;97751.13;;;7.40;79.73
27864;BME280;15980;51.092;13.916;2023-01-08T12:46:28;97764.16;;;7.22;80.79
27864;BME280;15980;51.092;13.916;2023-01-08T20:12:09;97521.25;;;6.79;87.07
27864;BME280;15980;51.092;13.916;2023-01-08T20:22:10;97503.69;;;5.46;92.22
27864;BME280;15980;51.092;13.916;2023-01-08T20:32:10;97492.94;;;4.95;95.43
27864;BME280;15980;51.092;13.916;2023-01-08T20:42:10;97476.31;;;4.76;96.57
27864;BME280;15980;51.092;13.916;2023-01-08T20:52:11;97455.75;;;4.66;96.71
27864;BME280;15980;51.092;13.916;2023-01-08T21:02:11;97470.56;;;4.57;98.19
27864;BME280;15980;51.092;13.916;2023-01-08T21:12:11;97477.09;;;4.56;97.84
27864;BME280;15980;51.092;13.916;2023-01-08T21:22:12;97462.59;;;4.52;97.64
27864;BME280;15980;51.092;13.916;2023-01-08T21:32:12;97436.75;;;4.66;98.57
27864;BME280;15980;51.092;13.916;2023-01-08T21:42:12;97420.69;;;4.73;97.24
27864;BME280;15980;51.092;13.916;2023-01-08T21:52:13;97387.63;;;4.71;97.58
27864;BME280;15980;51.092;13.916;2023-01-08T22:02:15;97385.59;;;4.68;97.50
27864;BME280;15980;51.092;13.916;2023-01-08T22:12:16;97363.94;;;4.60;97.29
27864;BME280;15980;51.092;13.916;2023-01-08T22:22:16;97352.09;;;4.77;97.16
27864;BME280;15980;51.092;13.916;2023-01-08T22:32:16;97354.09;;;4.88;97.40
27864;BME280;15980;51.092;13.916;2023-01-08T22:42:17;97337.19;;;4.83;95.97
27864;BME280;15980;51.092;13.916;2023-01-08T22:52:17;97315.81;;;4.93;96.14
27864;BME280;15980;51.092;13.916;2023-01-08T23:02:17;97291.25;;;5.02;95.71
27864;BME280;15980;51.092;13.916;2023-01-08T23:12:18;97304.50;;;5.03;95.24
27864;BME280;15980;51.092;13.916;2023-01-08T23:22:18;97284.81;;;5.07;95.62
